Maupin, OR

10:21 PM PDT on March 26, 2017 (GMT -0700)
High School | | Change Station

Elev 1106 ft 45.18 °N, 121.08 °W | Updated 7 seconds ago

Mostly Cloudy
Mostly Cloudy
46.7 °F
Feels Like 47 °F
N
2.5
Wind Variable Wind from SSW
Gusts 3.5 mph

Today
High -- | Low -- °F
--% Chance of Precip.
Yesterday
High -- | Low -- °F
Precip. -- in
Pressure 29.85 in
Visibility 10.0 miles
Clouds Scattered Clouds 9500 ft
Windchill 47 °F
Dew Point 43 °F
Humidity 87%
Rainfall 0.13 in
Snow Depth Not available.
6:55 AM 7:25 PM
Waning Crescent, 1% visible
METAR KDLS 270453Z AUTO 33007KT 10SM SCT095 07/06 A2985 RMK AO2 RAE24 SLP108 P0003 T00720056
Pressure 29.85 in
Visibility 10.0 miles
Clouds Scattered Clouds 9500 ft
Windchill 47 °F
Dew Point 43 °F
Humidity 87%
Rainfall 0.13 in
Snow Depth Not available.
6:55 AM 7:25 PM
Waning Crescent, 1% visible
METAR KDLS 270453Z AUTO 33007KT 10SM SCT095 07/06 A2985 RMK AO2 RAE24 SLP108 P0003 T00720056

Get Severe Weather Alerts

Thanks for signing up!

Be on the lookout for a verification email in your inbox.

You'll start receiving the daily forecast at 8 AM.

×

10-Day Weather Forecast

Almanac

Astronomy

Mar. 26, 2017 Rise Set
Actual Time
Civil Twilight
Nautical Twilight
Astronomical Twilight
Moon
Length of Visible Light
Length of Day
Tomorrow will be .
, % of the Moon is Illuminated

Today's Extremes

State Highs State Lows

Community

WunderPhotos

Upload Photos

1,962,540 photos uploaded!

WunderBlog® & News

Nearby

Air Quality

  Air Quality AQ Index Pollutant
Not available.

Snow Depth

Station Depth Elevation

Earthquake Activity

City Distance Mag. Time & Date
Minimum magnitude displayed is 2.5.

Earthquake Activity

City Distance Mag. Time & Date
Minimum magnitude displayed is 2.5.

Coastal Water Temperatures

Place Temperature

Stations

Nearby Weather Stations

Station Location Temp. Windchill Dew Point Humidity Wind Precip. Elev Updated Type
                   

Watches & Warnings

There are currently no watches in effect.